sensor_id;sensor_type;location;lat;lon;timestamp;P1;durP1;ratioP1;P2;durP2;ratioP2
74656;SDS011;63185;45.642;13.764;2023-04-01T00:00:19;1.80;;;0.63;;
74656;SDS011;63185;45.642;13.764;2023-04-01T00:02:45;2.90;;;1.02;;
74656;SDS011;63185;45.642;13.764;2023-04-01T00:05:11;2.65;;;0.98;;
74656;SDS011;63185;45.642;13.764;2023-04-01T00:07:38;2.38;;;0.60;;
74656;SDS011;63185;45.642;13.764;2023-04-01T00:10:05;2.72;;;0.57;;
74656;SDS011;63185;45.642;13.764;2023-04-01T00:12:32;3.53;;;0.70;;
74656;SDS011;63185;45.642;13.764;2023-04-01T00:14:58;3.05;;;1.00;;
74656;SDS011;63185;45.642;13.764;2023-04-01T00:17:24;2.05;;;0.57;;
74656;SDS011;63185;45.642;13.764;2023-04-01T00:19:51;1.17;;;0.45;;
74656;SDS011;63185;45.642;13.764;2023-04-01T00:22:16;1.08;;;0.43;;
74656;SDS011;63185;45.642;13.764;2023-04-01T00:24:42;1.45;;;0.47;;
74656;SDS011;63185;45.642;13.764;2023-04-01T00:27:08;2.28;;;0.60;;
74656;SDS011;63185;45.642;13.764;2023-04-01T00:29:35;1.50;;;0.43;;
74656;SDS011;63185;45.642;13.764;2023-04-01T00:32:01;0.40;;;0.30;;
74656;SDS011;63185;45.642;13.764;2023-04-01T00:34:26;2.00;;;0.30;;
74656;SDS011;63185;45.642;13.764;2023-04-01T00:36:52;0.88;;;0.32;;
74656;SDS011;63185;45.642;13.764;2023-04-01T00:39:19;1.58;;;0.30;;
74656;SDS011;63185;45.642;13.764;2023-04-01T00:41:47;0.55;;;0.28;;
74656;SDS011;63185;45.642;13.764;2023-04-01T00:44:23;0.45;;;0.20;;
74656;SDS011;63185;45.642;13.764;2023-04-01T00:46:50;0.45;;;0.10;;
74656;SDS011;63185;45.642;13.764;2023-04-01T00:49:17;0.40;;;0.20;;
74656;SDS011;63185;45.642;13.764;2023-04-01T00:51:47;1.08;;;0.20;;
74656;SDS011;63185;45.642;13.764;2023-04-01T00:54:15;0.47;;;0.25;;
74656;SDS011;63185;45.642;13.764;2023-04-01T00:56:51;1.25;;;0.20;;
74656;SDS011;63185;45.642;13.764;2023-04-01T00:59:25;0.98;;;0.20;;
74656;SDS011;63185;45.642;13.764;2023-04-01T01:01:54;1.02;;;0.40;;
74656;SDS011;63185;45.642;13.764;2023-04-01T01:04:21;0.47;;;0.20;;
74656;SDS011;63185;45.642;13.764;2023-04-01T01:07:12;0.85;;;0.22;;
74656;SDS011;63185;45.642;13.764;2023-04-01T01:09:56;1.77;;;0.32;;
74656;SDS011;63185;45.642;13.764;2023-04-01T01:12:31;3.20;;;0.45;;
74656;SDS011;63185;45.642;13.764;2023-04-01T01:37:28;2.35;;;0.50;;
74656;SDS011;63185;45.642;13.764;2023-04-01T01:39:57;0.20;;;0.20;;
74656;SDS011;63185;45.642;13.764;2023-04-01T01:42:26;0.93;;;0.30;;
74656;SDS011;63185;45.642;13.764;2023-04-01T01:44:55;0.93;;;0.32;;
74656;SDS011;63185;45.642;13.764;2023-04-01T01:47:24;1.10;;;0.30;;
74656;SDS011;63185;45.642;13.764;2023-04-01T01:49:52;1.15;;;0.38;;
74656;SDS011;63185;45.642;13.764;2023-04-01T01:52:21;1.95;;;0.30;;
74656;SDS011;63185;45.642;13.764;2023-04-01T01:54:48;1.42;;;0.40;;
74656;SDS011;63185;45.642;13.764;2023-04-01T01:57:19;0.77;;;0.30;;
74656;SDS011;63185;45.642;13.764;2023-04-01T01:59:48;1.05;;;0.35;;
74656;SDS011;63185;45.642;13.764;2023-04-01T02:02:17;1.15;;;0.40;;
74656;SDS011;63185;45.642;13.764;2023-04-01T02:04:43;0.60;;;0.30;;
74656;SDS011;63185;45.642;13.764;2023-04-01T02:07:13;0.70;;;0.30;;
74656;SDS011;63185;45.642;13.764;2023-04-01T02:09:47;1.50;;;0.20;;
74656;SDS011;63185;45.642;13.764;2023-04-01T02:12:13;1.20;;;0.40;;
74656;SDS011;63185;45.642;13.764;2023-04-01T02:17:24;0.90;;;0.30;;
74656;SDS011;63185;45.642;13.764;2023-04-01T02:19:59;1.23;;;0.28;;
74656;SDS011;63185;45.642;13.764;2023-04-01T02:22:31;1.20;;;0.30;;
74656;SDS011;63185;45.642;13.764;2023-04-01T02:25:05;1.00;;;0.50;;
74656;SDS011;63185;45.642;13.764;2023-04-01T02:27:32;1.27;;;0.40;;
74656;SDS011;63185;45.642;13.764;2023-04-01T02:29:59;0.73;;;0.30;;
74656;SDS011;63185;45.642;13.764;2023-04-01T02:32:25;2.92;;;0.80;;
74656;SDS011;63185;45.642;13.764;2023-04-01T02:34:53;1.10;;;0.43;;
74656;SDS011;63185;45.642;13.764;2023-04-01T02:37:19;1.05;;;0.40;;
74656;SDS011;63185;45.642;13.764;2023-04-01T02:39:45;3.17;;;0.50;;
74656;SDS011;63185;45.642;13.764;2023-04-01T02:42:11;2.55;;;0.60;;
74656;SDS011;63185;45.642;13.764;2023-04-01T02:44:38;2.50;;;0.40;;
74656;SDS011;63185;45.642;13.764;2023-04-01T02:47:03;2.53;;;0.40;;
74656;SDS011;63185;45.642;13.764;2023-04-01T02:49:29;1.00;;;0.50;;
74656;SDS011;63185;45.642;13.764;2023-04-01T02:51:55;1.38;;;0.50;;
74656;SDS011;63185;45.642;13.764;2023-04-01T02:54:20;1.90;;;0.50;;
74656;SDS011;63185;45.642;13.764;2023-04-01T02:56:46;0.88;;;0.50;;
74656;SDS011;63185;45.642;13.764;2023-04-01T02:59:12;1.63;;;0.50;;
74656;SDS011;63185;45.642;13.764;2023-04-01T03:01:37;1.92;;;0.43;;
74656;SDS011;63185;45.642;13.764;2023-04-01T03:04:03;1.40;;;0.50;;
74656;SDS011;63185;45.642;13.764;2023-04-01T03:06:29;3.22;;;0.47;;
74656;SDS011;63185;45.642;13.764;2023-04-01T03:08:55;0.85;;;0.30;;
74656;SDS011;63185;45.642;13.764;2023-04-01T03:11:21;0.80;;;0.38;;
74656;SDS011;63185;45.642;13.764;2023-04-01T03:13:47;1.30;;;0.30;;
74656;SDS011;63185;45.642;13.764;2023-04-01T03:16:13;0.85;;;0.38;;
74656;SDS011;63185;45.642;13.764;2023-04-01T03:18:40;1.55;;;0.30;;
74656;SDS011;63185;45.642;13.764;2023-04-01T03:21:15;0.98;;;0.30;;
74656;SDS011;63185;45.642;13.764;2023-04-01T03:23:43;1.45;;;0.30;;
74656;SDS011;63185;45.642;13.764;2023-04-01T03:26:09;2.63;;;0.50;;
74656;SDS011;63185;45.642;13.764;2023-04-01T03:28:34;0.45;;;0.20;;
74656;SDS011;63185;45.642;13.764;2023-04-01T03:31:00;0.55;;;0.30;;
74656;SDS011;63185;45.642;13.764;2023-04-01T03:33:26;1.65;;;0.20;;
74656;SDS011;63185;45.642;13.764;2023-04-01T03:35:51;2.03;;;0.30;;
74656;SDS011;63185;45.642;13.764;2023-04-01T03:38:17;0.47;;;0.30;;
74656;SDS011;63185;45.642;13.764;2023-04-01T03:40:43;1.67;;;0.30;;
74656;SDS011;63185;45.642;13.764;2023-04-01T03:43:09;0.70;;;0.40;;
74656;SDS011;63185;45.642;13.764;2023-04-01T03:45:36;1.67;;;0.40;;
74656;SDS011;63185;45.642;13.764;2023-04-01T03:48:08;2.42;;;0.30;;
74656;SDS011;63185;45.642;13.764;2023-04-01T03:50:34;1.00;;;0.47;;
74656;SDS011;63185;45.642;13.764;2023-04-01T03:53:00;3.05;;;0.50;;
74656;SDS011;63185;45.642;13.764;2023-04-01T03:55:26;0.63;;;0.30;;
74656;SDS011;63185;45.642;13.764;2023-04-01T03:57:51;1.55;;;0.40;;
74656;SDS011;63185;45.642;13.764;2023-04-01T04:00:17;0.65;;;0.40;;
74656;SDS011;63185;45.642;13.764;2023-04-01T04:02:44;0.70;;;0.40;;
74656;SDS011;63185;45.642;13.764;2023-04-01T04:05:09;1.88;;;0.50;;
74656;SDS011;63185;45.642;13.764;2023-04-01T04:07:35;1.00;;;0.32;;
74656;SDS011;63185;45.642;13.764;2023-04-01T04:10:01;0.80;;;0.50;;
74656;SDS011;63185;45.642;13.764;2023-04-01T04:12:27;1.17;;;0.30;;
74656;SDS011;63185;45.642;13.764;2023-04-01T04:14:53;1.75;;;0.50;;
74656;SDS011;63185;45.642;13.764;2023-04-01T04:17:19;1.17;;;0.50;;
74656;SDS011;63185;45.642;13.764;2023-04-01T04:19:45;0.70;;;0.30;;
74656;SDS011;63185;45.642;13.764;2023-04-01T04:22:10;1.45;;;0.40;;
74656;SDS011;63185;45.642;13.764;2023-04-01T04:24:36;2.47;;;0.45;;
74656;SDS011;63185;45.642;13.764;2023-04-01T04:27:02;1.10;;;0.40;;
74656;SDS011;63185;45.642;13.764;2023-04-01T04:29:29;3.47;;;0.60;;
74656;SDS011;63185;45.642;13.764;2023-04-01T04:31:55;3.97;;;0.68;;
74656;SDS011;63185;45.642;13.764;2023-04-01T04:34:21;3.25;;;1.00;;
74656;SDS011;63185;45.642;13.764;2023-04-01T04:36:47;3.35;;;0.90;;
74656;SDS011;63185;45.642;13.764;2023-04-01T04:39:13;2.10;;;0.60;;
74656;SDS011;63185;45.642;13.764;2023-04-01T04:41:39;4.85;;;1.23;;
74656;SDS011;63185;45.642;13.764;2023-04-01T04:44:05;1.60;;;0.90;;
74656;SDS011;63185;45.642;13.764;2023-04-01T04:46:31;3.05;;;1.10;;
74656;SDS011;63185;45.642;13.764;2023-04-01T04:48:57;2.72;;;1.02;;
74656;SDS011;63185;45.642;13.764;2023-04-01T04:51:22;2.65;;;1.17;;
74656;SDS011;63185;45.642;13.764;2023-04-01T04:53:49;1.33;;;0.73;;
74656;SDS011;63185;45.642;13.764;2023-04-01T04:56:18;2.00;;;0.90;;
74656;SDS011;63185;45.642;13.764;2023-04-01T04:58:45;2.40;;;0.80;;
74656;SDS011;63185;45.642;13.764;2023-04-01T05:01:12;2.20;;;0.80;;
74656;SDS011;63185;45.642;13.764;2023-04-01T05:03:39;4.28;;;0.60;;
74656;SDS011;63185;45.642;13.764;2023-04-01T05:06:05;2.47;;;0.60;;
74656;SDS011;63185;45.642;13.764;2023-04-01T05:08:32;3.50;;;0.90;;
74656;SDS011;63185;45.642;13.764;2023-04-01T05:10:59;3.38;;;1.10;;
74656;SDS011;63185;45.642;13.764;2023-04-01T05:13:25;3.70;;;1.10;;
74656;SDS011;63185;45.642;13.764;2023-04-01T05:15:51;2.65;;;0.70;;
74656;SDS011;63185;45.642;13.764;2023-04-01T05:18:17;2.92;;;0.57;;
74656;SDS011;63185;45.642;13.764;2023-04-01T05:20:49;0.60;;;0.40;;
74656;SDS011;63185;45.642;13.764;2023-04-01T05:23:17;1.95;;;0.40;;
74656;SDS011;63185;45.642;13.764;2023-04-01T05:25:46;0.95;;;0.40;;
74656;SDS011;63185;45.642;13.764;2023-04-01T05:28:12;1.50;;;0.40;;
74656;SDS011;63185;45.642;13.764;2023-04-01T05:30:41;2.30;;;0.70;;
74656;SDS011;63185;45.642;13.764;2023-04-01T05:33:08;3.08;;;0.93;;
74656;SDS011;63185;45.642;13.764;2023-04-01T05:35:35;0.82;;;0.40;;
74656;SDS011;63185;45.642;13.764;2023-04-01T05:38:01;2.17;;;0.50;;
74656;SDS011;63185;45.642;13.764;2023-04-01T05:40:27;1.67;;;0.47;;
74656;SDS011;63185;45.642;13.764;2023-04-01T05:42:55;0.93;;;0.50;;
74656;SDS011;63185;45.642;13.764;2023-04-01T05:45:20;2.08;;;0.40;;
74656;SDS011;63185;45.642;13.764;2023-04-01T05:47:46;1.30;;;0.68;;
74656;SDS011;63185;45.642;13.764;2023-04-01T05:50:12;2.63;;;0.55;;
74656;SDS011;63185;45.642;13.764;2023-04-01T05:52:38;2.38;;;0.50;;
74656;SDS011;63185;45.642;13.764;2023-04-01T05:55:04;1.95;;;0.45;;
74656;SDS011;63185;45.642;13.764;2023-04-01T05:57:30;1.38;;;0.50;;
74656;SDS011;63185;45.642;13.764;2023-04-01T05:59:56;1.50;;;0.70;;
74656;SDS011;63185;45.642;13.764;2023-04-01T06:02:21;3.17;;;0.60;;
74656;SDS011;63185;45.642;13.764;2023-04-01T06:04:47;1.92;;;0.75;;
74656;SDS011;63185;45.642;13.764;2023-04-01T06:07:13;9.50;;;4.82;;
74656;SDS011;63185;45.642;13.764;2023-04-01T06:09:41;2.97;;;1.05;;
74656;SDS011;63185;45.642;13.764;2023-04-01T06:17:30;6.07;;;3.03;;
74656;SDS011;63185;45.642;13.764;2023-04-01T06:28:35;4.15;;;2.30;;
74656;SDS011;63185;45.642;13.764;2023-04-01T06:44:42;6.15;;;2.65;;
74656;SDS011;63185;45.642;13.764;2023-04-01T06:55:56;5.65;;;3.70;;
74656;SDS011;63185;45.642;13.764;2023-04-01T06:58:33;9.30;;;3.83;;
74656;SDS011;63185;45.642;13.764;2023-04-01T07:01:25;7.30;;;2.70;;
74656;SDS011;63185;45.642;13.764;2023-04-01T07:04:14;6.95;;;3.47;;
74656;SDS011;63185;45.642;13.764;2023-04-01T07:06:50;6.45;;;2.17;;
74656;SDS011;63185;45.642;13.764;2023-04-01T07:09:19;9.43;;;2.05;;
74656;SDS011;63185;45.642;13.764;2023-04-01T07:12:00;3.42;;;1.10;;
74656;SDS011;63185;45.642;13.764;2023-04-01T07:14:32;6.45;;;0.82;;
74656;SDS011;63185;45.642;13.764;2023-04-01T07:17:05;3.67;;;1.13;;
74656;SDS011;63185;45.642;13.764;2023-04-01T07:22:34;4.70;;;1.75;;
74656;SDS011;63185;45.642;13.764;2023-04-01T07:25:13;3.72;;;1.92;;
74656;SDS011;63185;45.642;13.764;2023-04-01T07:27:45;5.35;;;2.03;;
74656;SDS011;63185;45.642;13.764;2023-04-01T07:30:21;3.60;;;1.20;;
74656;SDS011;63185;45.642;13.764;2023-04-01T07:33:08;3.20;;;1.48;;
74656;SDS011;63185;45.642;13.764;2023-04-01T07:35:51;5.57;;;1.33;;
74656;SDS011;63185;45.642;13.764;2023-04-01T07:57:20;3.28;;;1.17;;
74656;SDS011;63185;45.642;13.764;2023-04-01T08:00:13;5.03;;;1.35;;
74656;SDS011;63185;45.642;13.764;2023-04-01T08:05:34;3.15;;;1.33;;
74656;SDS011;63185;45.642;13.764;2023-04-01T08:08:17;6.82;;;1.42;;
74656;SDS011;63185;45.642;13.764;2023-04-01T08:16:23;5.88;;;1.90;;
74656;SDS011;63185;45.642;13.764;2023-04-01T08:21:52;4.07;;;1.38;;
74656;SDS011;63185;45.642;13.764;2023-04-01T08:27:11;5.47;;;1.40;;
74656;SDS011;63185;45.642;13.764;2023-04-01T08:29:51;5.45;;;1.38;;
74656;SDS011;63185;45.642;13.764;2023-04-01T08:32:20;4.22;;;1.92;;
74656;SDS011;63185;45.642;13.764;2023-04-01T08:35:20;8.33;;;3.07;;
74656;SDS011;63185;45.642;13.764;2023-04-01T08:37:53;8.05;;;4.07;;
74656;SDS011;63185;45.642;13.764;2023-04-01T08:40:29;6.68;;;3.35;;
74656;SDS011;63185;45.642;13.764;2023-04-01T08:54:12;6.95;;;2.00;;
74656;SDS011;63185;45.642;13.764;2023-04-01T09:00:22;6.43;;;2.20;;
74656;SDS011;63185;45.642;13.764;2023-04-01T09:25:21;3.17;;;1.60;;
74656;SDS011;63185;45.642;13.764;2023-04-01T09:36:59;4.45;;;1.08;;
74656;SDS011;63185;45.642;13.764;2023-04-01T09:44:58;6.50;;;1.75;;
74656;SDS011;63185;45.642;13.764;2023-04-01T09:47:39;5.72;;;1.40;;
74656;SDS011;63185;45.642;13.764;2023-04-01T10:12:55;7.25;;;1.67;;
74656;SDS011;63185;45.642;13.764;2023-04-01T10:26:32;6.40;;;2.00;;
74656;SDS011;63185;45.642;13.764;2023-04-01T10:35:03;5.57;;;1.40;;
74656;SDS011;63185;45.642;13.764;2023-04-01T10:40:19;7.10;;;1.10;;
74656;SDS011;63185;45.642;13.764;2023-04-01T10:43:12;5.57;;;1.17;;
74656;SDS011;63185;45.642;13.764;2023-04-01T10:46:11;5.32;;;1.17;;
74656;SDS011;63185;45.642;13.764;2023-04-01T11:00:25;2.78;;;0.90;;
74656;SDS011;63185;45.642;13.764;2023-04-01T11:03:30;6.00;;;0.90;;
74656;SDS011;63185;45.642;13.764;2023-04-01T11:28:38;5.50;;;1.60;;
74656;SDS011;63185;45.642;13.764;2023-04-01T11:31:47;7.13;;;1.90;;
74656;SDS011;63185;45.642;13.764;2023-04-01T11:45:51;9.98;;;2.00;;
74656;SDS011;63185;45.642;13.764;2023-04-01T11:51:33;8.07;;;2.08;;
74656;SDS011;63185;45.642;13.764;2023-04-01T11:59:51;7.68;;;2.13;;
74656;SDS011;63185;45.642;13.764;2023-04-01T12:13:04;9.18;;;2.08;;
74656;SDS011;63185;45.642;13.764;2023-04-01T12:21:42;11.40;;;2.40;;
74656;SDS011;63185;45.642;13.764;2023-04-01T12:35:27;9.57;;;2.13;;
74656;SDS011;63185;45.642;13.764;2023-04-01T12:40:54;11.43;;;1.98;;
74656;SDS011;63185;45.642;13.764;2023-04-01T12:48:51;12.27;;;3.10;;
74656;SDS011;63185;45.642;13.764;2023-04-01T12:51:42;8.13;;;1.70;;
74656;SDS011;63185;45.642;13.764;2023-04-01T13:03:36;9.23;;;2.38;;
74656;SDS011;63185;45.642;13.764;2023-04-01T13:06:19;6.43;;;2.03;;
74656;SDS011;63185;45.642;13.764;2023-04-01T13:09:05;6.43;;;1.30;;
74656;SDS011;63185;45.642;13.764;2023-04-01T13:12:04;4.10;;;1.20;;
74656;SDS011;63185;45.642;13.764;2023-04-01T13:17:36;3.67;;;0.88;;
74656;SDS011;63185;45.642;13.764;2023-04-01T13:23:03;1.40;;;0.70;;
74656;SDS011;63185;45.642;13.764;2023-04-01T13:28:44;1.02;;;0.52;;
74656;SDS011;63185;45.642;13.764;2023-04-01T13:31:27;3.65;;;0.90;;
74656;SDS011;63185;45.642;13.764;2023-04-01T13:34:24;1.35;;;0.75;;
74656;SDS011;63185;45.642;13.764;2023-04-01T13:36:59;2.45;;;0.70;;
74656;SDS011;63185;45.642;13.764;2023-04-01T13:50:17;1.00;;;0.50;;
74656;SDS011;63185;45.642;13.764;2023-04-01T14:06:26;2.13;;;0.70;;
74656;SDS011;63185;45.642;13.764;2023-04-01T14:11:57;2.75;;;0.60;;
74656;SDS011;63185;45.642;13.764;2023-04-01T14:14:48;3.47;;;0.52;;
74656;SDS011;63185;45.642;13.764;2023-04-01T14:20:16;1.23;;;0.60;;
74656;SDS011;63185;45.642;13.764;2023-04-01T14:36:55;1.83;;;0.60;;
74656;SDS011;63185;45.642;13.764;2023-04-01T14:50:29;4.22;;;0.90;;
74656;SDS011;63185;45.642;13.764;2023-04-01T14:53:12;2.70;;;0.90;;
74656;SDS011;63185;45.642;13.764;2023-04-01T14:55:51;3.75;;;0.73;;
74656;SDS011;63185;45.642;13.764;2023-04-01T14:58:27;2.70;;;0.50;;
74656;SDS011;63185;45.642;13.764;2023-04-01T15:03:51;4.78;;;1.30;;
74656;SDS011;63185;45.642;13.764;2023-04-01T15:12:26;4.07;;;1.05;;
74656;SDS011;63185;45.642;13.764;2023-04-01T15:23:15;1.63;;;0.40;;
74656;SDS011;63185;45.642;13.764;2023-04-01T15:28:36;1.85;;;0.50;;
74656;SDS011;63185;45.642;13.764;2023-04-01T15:31:22;3.63;;;0.60;;
74656;SDS011;63185;45.642;13.764;2023-04-01T15:36:36;1.60;;;0.40;;
74656;SDS011;63185;45.642;13.764;2023-04-01T15:42:08;1.92;;;0.50;;
74656;SDS011;63185;45.642;13.764;2023-04-01T15:49:55;1.73;;;0.50;;
74656;SDS011;63185;45.642;13.764;2023-04-01T15:55:26;2.53;;;0.75;;
74656;SDS011;63185;45.642;13.764;2023-04-01T16:10:04;2.42;;;0.73;;
74656;SDS011;63185;45.642;13.764;2023-04-01T16:15:25;1.90;;;0.63;;
74656;SDS011;63185;45.642;13.764;2023-04-01T16:23:36;1.27;;;0.57;;
74656;SDS011;63185;45.642;13.764;2023-04-01T16:26:13;1.92;;;0.50;;
74656;SDS011;63185;45.642;13.764;2023-04-01T16:29:03;1.80;;;0.50;;
74656;SDS011;63185;45.642;13.764;2023-04-01T16:31:46;1.95;;;0.47;;
74656;SDS011;63185;45.642;13.764;2023-04-01T16:34:24;3.10;;;0.50;;
74656;SDS011;63185;45.642;13.764;2023-04-01T16:37:17;2.15;;;0.80;;
74656;SDS011;63185;45.642;13.764;2023-04-01T16:39:53;1.63;;;0.60;;
74656;SDS011;63185;45.642;13.764;2023-04-01T16:47:35;4.47;;;1.73;;
74656;SDS011;63185;45.642;13.764;2023-04-01T16:50:29;6.05;;;1.25;;
74656;SDS011;63185;45.642;13.764;2023-04-01T17:01:23;7.82;;;4.00;;
74656;SDS011;63185;45.642;13.764;2023-04-01T17:04:18;10.20;;;3.75;;
74656;SDS011;63185;45.642;13.764;2023-04-01T17:17:34;14.05;;;5.95;;
74656;SDS011;63185;45.642;13.764;2023-04-01T17:25:25;15.13;;;8.77;;
74656;SDS011;63185;45.642;13.764;2023-04-01T17:27:59;17.50;;;9.38;;
74656;SDS011;63185;45.642;13.764;2023-04-01T17:50:10;28.33;;;17.63;;
74656;SDS011;63185;45.642;13.764;2023-04-01T17:53:09;26.75;;;15.90;;
74656;SDS011;63185;45.642;13.764;2023-04-01T17:58:42;36.28;;;20.00;;
74656;SDS011;63185;45.642;13.764;2023-04-01T18:01:26;32.75;;;19.73;;
74656;SDS011;63185;45.642;13.764;2023-04-01T18:09:22;36.13;;;23.07;;
74656;SDS011;63185;45.642;13.764;2023-04-01T18:12:21;39.58;;;22.33;;
74656;SDS011;63185;45.642;13.764;2023-04-01T18:14:54;36.67;;;22.13;;
74656;SDS011;63185;45.642;13.764;2023-04-01T18:22:58;33.20;;;19.10;;
74656;SDS011;63185;45.642;13.764;2023-04-01T18:25:42;31.20;;;17.58;;
74656;SDS011;63185;45.642;13.764;2023-04-01T18:30:49;31.48;;;17.42;;
74656;SDS011;63185;45.642;13.764;2023-04-01T18:33:19;34.70;;;17.55;;
74656;SDS011;63185;45.642;13.764;2023-04-01T18:35:48;31.40;;;17.27;;
74656;SDS011;63185;45.642;13.764;2023-04-01T18:38:20;29.27;;;17.75;;
74656;SDS011;63185;45.642;13.764;2023-04-01T18:41:32;32.85;;;17.73;;
74656;SDS011;63185;45.642;13.764;2023-04-01T18:47:25;40.42;;;22.42;;
74656;SDS011;63185;45.642;13.764;2023-04-01T18:49:59;40.80;;;22.38;;
74656;SDS011;63185;45.642;13.764;2023-04-01T18:52:45;37.10;;;23.13;;
74656;SDS011;63185;45.642;13.764;2023-04-01T18:58:45;38.35;;;23.25;;
74656;SDS011;63185;45.642;13.764;2023-04-01T19:06:53;36.80;;;18.83;;
74656;SDS011;63185;45.642;13.764;2023-04-01T19:09:26;26.10;;;15.18;;
74656;SDS011;63185;45.642;13.764;2023-04-01T19:26:28;19.88;;;10.15;;
74656;SDS011;63185;45.642;13.764;2023-04-01T19:29:18;17.30;;;9.05;;
74656;SDS011;63185;45.642;13.764;2023-04-01T19:37:14;25.10;;;10.95;;
74656;SDS011;63185;45.642;13.764;2023-04-01T19:45:41;21.00;;;10.52;;
74656;SDS011;63185;45.642;13.764;2023-04-01T19:48:29;22.50;;;11.68;;
74656;SDS011;63185;45.642;13.764;2023-04-01T19:51:13;18.60;;;11.07;;
74656;SDS011;63185;45.642;13.764;2023-04-01T19:53:59;21.52;;;12.02;;
74656;SDS011;63185;45.642;13.764;2023-04-01T19:56:44;22.80;;;11.20;;
74656;SDS011;63185;45.642;13.764;2023-04-01T19:59:42;22.58;;;12.35;;
74656;SDS011;63185;45.642;13.764;2023-04-01T20:02:32;32.15;;;16.65;;
74656;SDS011;63185;45.642;13.764;2023-04-01T20:11:11;37.28;;;20.10;;
74656;SDS011;63185;45.642;13.764;2023-04-01T20:16:23;44.75;;;21.52;;
74656;SDS011;63185;45.642;13.764;2023-04-01T20:19:13;43.38;;;26.42;;
74656;SDS011;63185;45.642;13.764;2023-04-01T20:26:40;46.65;;;26.05;;
74656;SDS011;63185;45.642;13.764;2023-04-01T20:34:45;46.13;;;27.42;;
74656;SDS011;63185;45.642;13.764;2023-04-01T20:53:42;48.55;;;25.70;;
74656;SDS011;63185;45.642;13.764;2023-04-01T21:04:27;35.85;;;20.65;;
74656;SDS011;63185;45.642;13.764;2023-04-01T21:15:54;33.40;;;21.05;;
74656;SDS011;63185;45.642;13.764;2023-04-01T21:18:47;33.25;;;20.17;;
74656;SDS011;63185;45.642;13.764;2023-04-01T21:43:53;33.67;;;19.00;;
74656;SDS011;63185;45.642;13.764;2023-04-01T22:00:53;35.38;;;21.92;;
74656;SDS011;63185;45.642;13.764;2023-04-01T22:06:38;33.72;;;20.52;;
74656;SDS011;63185;45.642;13.764;2023-04-01T22:12:12;42.63;;;23.95;;
74656;SDS011;63185;45.642;13.764;2023-04-01T22:28:38;26.17;;;12.07;;
74656;SDS011;63185;45.642;13.764;2023-04-01T22:31:13;24.83;;;13.02;;
74656;SDS011;63185;45.642;13.764;2023-04-01T22:36:36;21.40;;;12.52;;
74656;SDS011;63185;45.642;13.764;2023-04-01T22:50:16;22.15;;;12.40;;
74656;SDS011;63185;45.642;13.764;2023-04-01T22:52:46;22.60;;;12.20;;
74656;SDS011;63185;45.642;13.764;2023-04-01T22:55:17;21.40;;;12.18;;
74656;SDS011;63185;45.642;13.764;2023-04-01T22:57:52;22.65;;;11.57;;
74656;SDS011;63185;45.642;13.764;2023-04-01T23:00:42;22.42;;;11.60;;
74656;SDS011;63185;45.642;13.764;2023-04-01T23:05:46;16.65;;;9.02;;
74656;SDS011;63185;45.642;13.764;2023-04-01T23:11:32;11.20;;;6.57;;
74656;SDS011;63185;45.642;13.764;2023-04-01T23:38:22;8.93;;;4.55;;
74656;SDS011;63185;45.642;13.764;2023-04-01T23:40:51;9.82;;;4.18;;
74656;SDS011;63185;45.642;13.764;2023-04-01T23:43:27;9.45;;;4.00;;
74656;SDS011;63185;45.642;13.764;2023-04-01T23:45:58;13.65;;;3.75;;
74656;SDS011;63185;45.642;13.764;2023-04-01T23:48:32;9.57;;;3.60;;
74656;SDS011;63185;45.642;13.764;2023-04-01T23:51:01;7.82;;;3.80;;
74656;SDS011;63185;45.642;13.764;2023-04-01T23:53:29;12.57;;;3.40;;
74656;SDS011;63185;45.642;13.764;2023-04-01T23:55:58;9.75;;;3.65;;
74656;SDS011;63185;45.642;13.764;2023-04-01T23:58:25;10.27;;;4.15;;
